sensor_id;sensor_type;location;lat;lon;timestamp;pressure;altitude;pressure_sealevel;temperature;humidity
19096;BME280;9680;52.520;13.332;2023-11-18T00:01:30;101921.66;;;5.52;87.60
19096;BME280;9680;52.520;13.332;2023-11-18T00:03:57;101926.81;;;5.53;87.41
19096;BME280;9680;52.520;13.332;2023-11-18T00:06:24;101922.53;;;5.51;87.38
19096;BME280;9680;52.520;13.332;2023-11-18T00:08:51;101927.69;;;5.49;87.85
19096;BME280;9680;52.520;13.332;2023-11-18T00:11:18;101938.03;;;5.54;87.74
19096;BME280;9680;52.520;13.332;2023-11-18T00:13:44;101933.72;;;5.58;87.70
19096;BME280;9680;52.520;13.332;2023-11-18T00:16:13;101944.06;;;5.61;87.54
19096;BME280;9680;52.520;13.332;2023-11-18T00:18:41;101936.31;;;5.61;87.18
19096;BME280;9680;52.520;13.332;2023-11-18T00:21:08;101932.03;;;5.61;87.43
19096;BME280;9680;52.520;13.332;2023-11-18T00:23:35;101942.34;;;5.58;87.07
19096;BME280;9680;52.520;13.332;2023-11-18T00:26:02;101946.63;;;5.54;87.07
19096;BME280;9680;52.520;13.332;2023-11-18T00:28:30;101958.69;;;5.49;87.19
19096;BME280;9680;52.520;13.332;2023-11-18T00:30:57;101960.41;;;5.50;87.50
19096;BME280;9680;52.520;13.332;2023-11-18T00:33:25;101958.69;;;5.52;87.41
19096;BME280;9680;52.520;13.332;2023-11-18T00:35:52;101963.88;;;5.56;87.10
19096;BME280;9680;52.520;13.332;2023-11-18T00:38:19;101963.03;;;5.52;86.93
19096;BME280;9680;52.520;13.332;2023-11-18T00:40:46;101969.91;;;5.50;86.99
19096;BME280;9680;52.520;13.332;2023-11-18T00:43:12;101967.31;;;5.50;86.98
19096;BME280;9680;52.520;13.332;2023-11-18T00:45:39;101970.75;;;5.50;87.34
19096;BME280;9680;52.520;13.332;2023-11-18T00:48:08;101978.50;;;5.50;87.01
19096;BME280;9680;52.520;13.332;2023-11-18T00:50:37;101977.63;;;5.45;86.85
19096;BME280;9680;52.520;13.332;2023-11-18T00:53:03;101982.81;;;5.45;87.11
19096;BME280;9680;52.520;13.332;2023-11-18T00:55:30;101987.13;;;5.46;87.20
19096;BME280;9680;52.520;13.332;2023-11-18T00:57:58;101994.00;;;5.44;87.11
19096;BME280;9680;52.520;13.332;2023-11-18T01:00:25;101989.72;;;5.45;87.27
19096;BME280;9680;52.520;13.332;2023-11-18T01:02:53;101999.19;;;5.47;87.22
19096;BME280;9680;52.520;13.332;2023-11-18T01:05:21;102003.47;;;5.45;87.27
19096;BME280;9680;52.520;13.332;2023-11-18T01:07:49;101998.31;;;5.48;87.39
19096;BME280;9680;52.520;13.332;2023-11-18T01:10:15;102006.09;;;5.47;87.29
19096;BME280;9680;52.520;13.332;2023-11-18T01:12:44;102006.94;;;5.44;87.31
19096;BME280;9680;52.520;13.332;2023-11-18T01:15:11;102013.81;;;5.45;87.16
19096;BME280;9680;52.520;13.332;2023-11-18T01:17:39;102011.25;;;5.44;87.54
19096;BME280;9680;52.520;13.332;2023-11-18T01:20:07;102017.25;;;5.44;87.50
19096;BME280;9680;52.520;13.332;2023-11-18T01:22:35;102017.28;;;5.46;87.60
19096;BME280;9680;52.520;13.332;2023-11-18T01:25:04;102016.41;;;5.48;87.80
19096;BME280;9680;52.520;13.332;2023-11-18T01:27:31;102016.41;;;5.48;87.23
19096;BME280;9680;52.520;13.332;2023-11-18T01:29:59;102018.19;;;5.54;87.55
19096;BME280;9680;52.520;13.332;2023-11-18T01:32:26;102018.19;;;5.60;87.34
19096;BME280;9680;52.520;13.332;2023-11-18T01:34:55;102021.63;;;5.59;87.13
19096;BME280;9680;52.520;13.332;2023-11-18T01:37:22;102014.72;;;5.57;86.91
19096;BME280;9680;52.520;13.332;2023-11-18T01:39:50;102020.72;;;5.45;87.00
19096;BME280;9680;52.520;13.332;2023-11-18T01:42:18;102030.22;;;5.46;87.47
19096;BME280;9680;52.520;13.332;2023-11-18T01:44:44;102026.75;;;5.45;87.39
19096;BME280;9680;52.520;13.332;2023-11-18T01:47:11;102021.56;;;5.45;87.46
19096;BME280;9680;52.520;13.332;2023-11-18T01:49:38;102025.03;;;5.50;87.37
19096;BME280;9680;52.520;13.332;2023-11-18T01:52:07;102027.66;;;5.52;87.51
19096;BME280;9680;52.520;13.332;2023-11-18T01:54:35;102037.13;;;5.54;87.61
19096;BME280;9680;52.520;13.332;2023-11-18T01:57:04;102028.50;;;5.59;87.49
19096;BME280;9680;52.520;13.332;2023-11-18T01:59:33;102036.31;;;5.63;87.36
19096;BME280;9680;52.520;13.332;2023-11-18T02:02:01;102041.44;;;5.59;86.95
19096;BME280;9680;52.520;13.332;2023-11-18T02:04:28;102039.72;;;5.56;86.84
19096;BME280;9680;52.520;13.332;2023-11-18T02:06:55;102039.69;;;5.51;87.18
19096;BME280;9680;52.520;13.332;2023-11-18T02:09:23;102042.28;;;5.47;86.85
19096;BME280;9680;52.520;13.332;2023-11-18T02:11:56;102042.22;;;5.39;87.41
19096;BME280;9680;52.520;13.332;2023-11-18T02:14:28;102038.78;;;5.40;87.79
19096;BME280;9680;52.520;13.332;2023-11-18T02:16:59;102045.72;;;5.46;87.64
19096;BME280;9680;52.520;13.332;2023-11-18T02:19:28;102046.56;;;5.45;87.42
19096;BME280;9680;52.520;13.332;2023-11-18T02:21:57;102051.72;;;5.46;87.58
19096;BME280;9680;52.520;13.332;2023-11-18T02:24:25;102050.88;;;5.47;87.51
19096;BME280;9680;52.520;13.332;2023-11-18T02:26:56;102054.31;;;5.46;87.04
19096;BME280;9680;52.520;13.332;2023-11-18T02:29:24;102045.66;;;5.33;87.40
19096;BME280;9680;52.520;13.332;2023-11-18T02:31:53;102049.09;;;5.34;87.44
19096;BME280;9680;52.520;13.332;2023-11-18T02:34:27;102060.31;;;5.37;87.87
19096;BME280;9680;52.520;13.332;2023-11-18T02:36:57;102049.16;;;5.42;87.91
19096;BME280;9680;52.520;13.332;2023-11-18T02:39:30;102055.09;;;5.30;87.70
19096;BME280;9680;52.520;13.332;2023-11-18T02:42:01;102053.38;;;5.25;87.75
19096;BME280;9680;52.520;13.332;2023-11-18T02:44:29;102055.91;;;5.18;88.08
19096;BME280;9680;52.520;13.332;2023-11-18T02:46:58;102053.34;;;5.22;88.59
19096;BME280;9680;52.520;13.332;2023-11-18T02:49:25;102061.09;;;5.27;88.24
19096;BME280;9680;52.520;13.332;2023-11-18T02:51:53;102064.56;;;5.26;88.26
19096;BME280;9680;52.520;13.332;2023-11-18T02:54:20;102061.97;;;5.29;88.08
19096;BME280;9680;52.520;13.332;2023-11-18T02:56:47;102050.78;;;5.27;87.79
19096;BME280;9680;52.520;13.332;2023-11-18T02:59:16;102051.63;;;5.21;87.86
19096;BME280;9680;52.520;13.332;2023-11-18T03:01:42;102054.19;;;5.18;88.25
19096;BME280;9680;52.520;13.332;2023-11-18T03:04:10;102050.75;;;5.19;88.18
19096;BME280;9680;52.520;13.332;2023-11-18T03:06:36;102058.47;;;5.13;87.91
19096;BME280;9680;52.520;13.332;2023-11-18T03:09:03;102055.84;;;5.08;88.58
19096;BME280;9680;52.520;13.332;2023-11-18T03:11:32;102052.41;;;5.09;88.81
19096;BME280;9680;52.520;13.332;2023-11-18T03:13:59;102047.25;;;5.11;88.43
19096;BME280;9680;52.520;13.332;2023-11-18T03:16:27;102051.56;;;5.09;88.68
19096;BME280;9680;52.520;13.332;2023-11-18T03:18:54;102048.09;;;5.05;88.85
19096;BME280;9680;52.520;13.332;2023-11-18T03:21:21;102054.97;;;5.06;88.74
19096;BME280;9680;52.520;13.332;2023-11-18T03:23:48;102066.19;;;5.08;88.94
19096;BME280;9680;52.520;13.332;2023-11-18T03:26:14;102062.75;;;5.09;88.87
19096;BME280;9680;52.520;13.332;2023-11-18T03:28:41;102061.03;;;5.10;89.07
19096;BME280;9680;52.520;13.332;2023-11-18T03:31:08;102061.03;;;5.15;88.80
19096;BME280;9680;52.520;13.332;2023-11-18T03:33:38;102062.81;;;5.17;88.59
19096;BME280;9680;52.520;13.332;2023-11-18T03:36:06;102066.25;;;5.19;88.81
19096;BME280;9680;52.520;13.332;2023-11-18T03:38:33;102068.84;;;5.21;88.58
19096;BME280;9680;52.520;13.332;2023-11-18T03:41:00;102068.84;;;5.21;88.54
19096;BME280;9680;52.520;13.332;2023-11-18T03:43:27;102073.13;;;5.17;88.20
19096;BME280;9680;52.520;13.332;2023-11-18T03:45:54;102067.06;;;5.12;88.17
19096;BME280;9680;52.520;13.332;2023-11-18T03:48:22;102069.66;;;5.09;88.31
19096;BME280;9680;52.520;13.332;2023-11-18T03:50:50;102076.53;;;5.15;88.71
19096;BME280;9680;52.520;13.332;2023-11-18T03:53:18;102067.09;;;5.17;88.50
19096;BME280;9680;52.520;13.332;2023-11-18T03:55:44;102072.28;;;5.20;88.64
19096;BME280;9680;52.520;13.332;2023-11-18T03:58:11;102074.03;;;5.22;88.45
19096;BME280;9680;52.520;13.332;2023-11-18T04:00:38;102071.41;;;5.18;88.12
19096;BME280;9680;52.520;13.332;2023-11-18T04:03:05;102085.16;;;5.17;88.03
19096;BME280;9680;52.520;13.332;2023-11-18T04:05:33;102075.72;;;5.20;88.25
19096;BME280;9680;52.520;13.332;2023-11-18T04:08:05;102080.91;;;5.23;88.20
19096;BME280;9680;52.520;13.332;2023-11-18T04:10:32;102077.47;;;5.26;88.16
19096;BME280;9680;52.520;13.332;2023-11-18T04:12:59;102083.50;;;5.27;88.06
19096;BME280;9680;52.520;13.332;2023-11-18T04:15:26;102086.09;;;5.23;88.04
19096;BME280;9680;52.520;13.332;2023-11-18T04:17:53;102091.25;;;5.25;88.11
19096;BME280;9680;52.520;13.332;2023-11-18T04:20:20;102084.34;;;5.24;87.86
19096;BME280;9680;52.520;13.332;2023-11-18T04:22:47;102092.09;;;5.24;88.31
19096;BME280;9680;52.520;13.332;2023-11-18T04:25:15;102098.13;;;5.18;88.28
19096;BME280;9680;52.520;13.332;2023-11-18T04:27:41;102094.63;;;5.15;88.26
19096;BME280;9680;52.520;13.332;2023-11-18T04:30:09;102099.78;;;5.15;88.70
19096;BME280;9680;52.520;13.332;2023-11-18T04:32:36;102102.34;;;5.07;88.29
19096;BME280;9680;52.520;13.332;2023-11-18T04:35:03;102106.63;;;5.03;88.56
19096;BME280;9680;52.520;13.332;2023-11-18T04:37:34;102105.69;;;4.96;88.95
19096;BME280;9680;52.520;13.332;2023-11-18T04:40:00;102103.94;;;4.92;89.23
19096;BME280;9680;52.520;13.332;2023-11-18T04:42:29;102109.97;;;4.94;89.59
19096;BME280;9680;52.520;13.332;2023-11-18T04:44:56;102103.09;;;4.96;89.30
19096;BME280;9680;52.520;13.332;2023-11-18T04:47:23;102104.00;;;4.99;89.67
19096;BME280;9680;52.520;13.332;2023-11-18T04:49:50;102107.44;;;4.99;89.41
19096;BME280;9680;52.520;13.332;2023-11-18T04:52:17;102096.25;;;4.97;89.27
19096;BME280;9680;52.520;13.332;2023-11-18T04:54:43;102112.56;;;4.94;89.45
19096;BME280;9680;52.520;13.332;2023-11-18T04:57:13;102112.59;;;4.96;89.65
19096;BME280;9680;52.520;13.332;2023-11-18T04:59:41;102116.00;;;4.92;89.33
19096;BME280;9680;52.520;13.332;2023-11-18T05:02:08;102117.75;;;4.93;89.86
19096;BME280;9680;52.520;13.332;2023-11-18T05:04:35;102117.81;;;5.01;89.96
19096;BME280;9680;52.520;13.332;2023-11-18T05:07:02;102117.81;;;5.01;89.66
19096;BME280;9680;52.520;13.332;2023-11-18T05:09:29;102110.06;;;5.01;89.75
19096;BME280;9680;52.520;13.332;2023-11-18T05:11:57;102113.56;;;5.09;89.76
19096;BME280;9680;52.520;13.332;2023-11-18T05:14:24;102115.31;;;5.13;89.76
19096;BME280;9680;52.520;13.332;2023-11-18T05:16:53;102113.59;;;5.17;89.32
19096;BME280;9680;52.520;13.332;2023-11-18T05:19:19;102117.03;;;5.19;89.18
19096;BME280;9680;52.520;13.332;2023-11-18T05:21:46;102119.59;;;5.16;89.18
19096;BME280;9680;52.520;13.332;2023-11-18T05:24:14;102111.88;;;5.19;89.24
19096;BME280;9680;52.520;13.332;2023-11-18T05:26:41;102111.91;;;5.20;89.15
19096;BME280;9680;52.520;13.332;2023-11-18T05:29:08;102113.63;;;5.21;88.92
19096;BME280;9680;52.520;13.332;2023-11-18T05:31:35;102120.53;;;5.22;88.81
19096;BME280;9680;52.520;13.332;2023-11-18T05:34:03;102114.47;;;5.22;88.98
19096;BME280;9680;52.520;13.332;2023-11-18T05:36:30;102118.84;;;5.31;89.13
19096;BME280;9680;52.520;13.332;2023-11-18T05:39:02;102117.19;;;5.37;88.71
19096;BME280;9680;52.520;13.332;2023-11-18T05:41:30;102118.00;;;5.35;88.55
19096;BME280;9680;52.520;13.332;2023-11-18T05:43:57;102128.28;;;5.27;87.78
19096;BME280;9680;52.520;13.332;2023-11-18T05:46:24;102129.13;;;5.18;88.08
19096;BME280;9680;52.520;13.332;2023-11-18T05:48:53;102127.34;;;5.13;88.27
19096;BME280;9680;52.520;13.332;2023-11-18T05:51:22;102129.06;;;5.12;88.56
19096;BME280;9680;52.520;13.332;2023-11-18T05:53:49;102137.69;;;5.16;88.75
19096;BME280;9680;52.520;13.332;2023-11-18T05:56:18;102118.69;;;5.07;88.40
19096;BME280;9680;52.520;13.332;2023-11-18T05:58:47;102124.72;;;5.06;88.59
19096;BME280;9680;52.520;13.332;2023-11-18T06:01:14;102127.38;;;5.14;88.96
19096;BME280;9680;52.520;13.332;2023-11-18T06:03:42;102122.19;;;5.14;88.67
19096;BME280;9680;52.520;13.332;2023-11-18T06:06:10;102128.22;;;5.15;88.72
19096;BME280;9680;52.520;13.332;2023-11-18T06:08:39;102130.81;;;5.16;88.42
19096;BME280;9680;52.520;13.332;2023-11-18T06:11:07;102132.50;;;5.11;87.96
19096;BME280;9680;52.520;13.332;2023-11-18T06:13:40;102133.28;;;4.99;88.27
19096;BME280;9680;52.520;13.332;2023-11-18T06:16:12;102131.53;;;4.95;88.74
19096;BME280;9680;52.520;13.332;2023-11-18T06:18:41;102137.59;;;4.99;89.02
19096;BME280;9680;52.520;13.332;2023-11-18T06:21:13;102135.03;;;5.03;89.25
19096;BME280;9680;52.520;13.332;2023-11-18T06:23:42;102134.19;;;5.06;88.79
19096;BME280;9680;52.520;13.332;2023-11-18T06:26:09;102129.88;;;5.05;88.73
19096;BME280;9680;52.520;13.332;2023-11-18T06:28:38;102131.59;;;5.03;89.08
19096;BME280;9680;52.520;13.332;2023-11-18T06:31:05;102131.63;;;5.09;89.05
19096;BME280;9680;52.520;13.332;2023-11-18T06:33:36;102133.34;;;5.07;89.08
19096;BME280;9680;52.520;13.332;2023-11-18T06:36:06;102135.94;;;5.07;88.86
19096;BME280;9680;52.520;13.332;2023-11-18T06:38:33;102142.81;;;5.05;88.96
19096;BME280;9680;52.520;13.332;2023-11-18T06:41:02;102150.56;;;5.09;89.00
19096;BME280;9680;52.520;13.332;2023-11-18T06:43:30;102148.00;;;5.09;88.66
19096;BME280;9680;52.520;13.332;2023-11-18T06:46:11;102152.31;;;5.10;88.83
19096;BME280;9680;52.520;13.332;2023-11-18T06:48:39;102153.13;;;5.06;88.18
19096;BME280;9680;52.520;13.332;2023-11-18T06:51:06;102165.22;;;5.09;88.69
19096;BME280;9680;52.520;13.332;2023-11-18T06:53:34;102161.75;;;5.04;88.44
19096;BME280;9680;52.520;13.332;2023-11-18T06:56:02;102160.84;;;5.00;88.52
19096;BME280;9680;52.520;13.332;2023-11-18T06:58:30;102159.94;;;4.96;88.95
19096;BME280;9680;52.520;13.332;2023-11-18T07:00:57;102161.69;;;4.98;89.13
19096;BME280;9680;52.520;13.332;2023-11-18T07:03:24;102161.69;;;4.99;89.18
19096;BME280;9680;52.520;13.332;2023-11-18T07:05:49;102161.78;;;5.12;89.55
19096;BME280;9680;52.520;13.332;2023-11-18T07:08:16;102151.50;;;5.19;88.99
19096;BME280;9680;52.520;13.332;2023-11-18T07:10:43;102162.75;;;5.24;88.77
19096;BME280;9680;52.520;13.332;2023-11-18T07:13:11;102162.75;;;5.26;88.51
19096;BME280;9680;52.520;13.332;2023-11-18T07:15:38;102167.88;;;5.23;88.14
19096;BME280;9680;52.520;13.332;2023-11-18T07:18:05;102161.88;;;5.27;88.31
19096;BME280;9680;52.520;13.332;2023-11-18T07:20:31;102167.94;;;5.31;88.00
19096;BME280;9680;52.520;13.332;2023-11-18T07:22:58;102164.53;;;5.33;87.76
19096;BME280;9680;52.520;13.332;2023-11-18T07:25:25;102168.00;;;5.37;87.72
19096;BME280;9680;52.520;13.332;2023-11-18T07:27:52;102170.59;;;5.40;87.43
19096;BME280;9680;52.520;13.332;2023-11-18T07:30:20;102181.81;;;5.42;87.28
19096;BME280;9680;52.520;13.332;2023-11-18T07:32:51;102185.25;;;5.41;87.20
19096;BME280;9680;52.520;13.332;2023-11-18T07:35:17;102194.75;;;5.45;87.36
19096;BME280;9680;52.520;13.332;2023-11-18T07:37:44;102199.16;;;5.57;87.29
19096;BME280;9680;52.520;13.332;2023-11-18T07:40:11;102200.88;;;5.63;87.10
19096;BME280;9680;52.520;13.332;2023-11-18T07:42:40;102204.38;;;5.66;86.92
19096;BME280;9680;52.520;13.332;2023-11-18T07:45:07;102209.56;;;5.68;86.55
19096;BME280;9680;52.520;13.332;2023-11-18T07:47:44;102215.63;;;5.70;86.11
19096;BME280;9680;52.520;13.332;2023-11-18T07:50:11;102218.13;;;5.62;85.86
19096;BME280;9680;52.520;13.332;2023-11-18T07:52:39;102225.88;;;5.61;86.08
19096;BME280;9680;52.520;13.332;2023-11-18T07:55:06;102219.78;;;5.51;85.69
19096;BME280;9680;52.520;13.332;2023-11-18T07:57:36;102229.22;;;5.43;86.21
19096;BME280;9680;52.520;13.332;2023-11-18T08:00:03;102231.78;;;5.39;86.28
19096;BME280;9680;52.520;13.332;2023-11-18T08:02:38;102224.00;;;5.38;86.88
19096;BME280;9680;52.520;13.332;2023-11-18T08:05:07;102233.47;;;5.37;86.57
19096;BME280;9680;52.520;13.332;2023-11-18T08:07:34;102236.88;;;5.32;87.03
19096;BME280;9680;52.520;13.332;2023-11-18T08:10:01;102232.59;;;5.37;87.07
19096;BME280;9680;52.520;13.332;2023-11-18T08:12:30;102234.34;;;5.39;87.10
19096;BME280;9680;52.520;13.332;2023-11-18T08:14:56;102240.44;;;5.48;87.15
19096;BME280;9680;52.520;13.332;2023-11-18T08:17:24;102237.03;;;5.57;86.98
19096;BME280;9680;52.520;13.332;2023-11-18T08:19:51;102226.81;;;5.69;87.07
19096;BME280;9680;52.520;13.332;2023-11-18T08:22:20;102223.41;;;5.79;86.56
19096;BME280;9680;52.520;13.332;2023-11-18T08:24:48;102227.78;;;5.90;86.27
19096;BME280;9680;52.520;13.332;2023-11-18T08:27:15;102222.56;;;5.83;85.15
19096;BME280;9680;52.520;13.332;2023-11-18T08:29:42;102231.22;;;5.86;85.26
19096;BME280;9680;52.520;13.332;2023-11-18T08:32:08;102228.59;;;5.84;85.38
19096;BME280;9680;52.520;13.332;2023-11-18T08:34:35;102227.78;;;5.87;85.41
19096;BME280;9680;52.520;13.332;2023-11-18T08:37:03;102231.31;;;6.01;85.62
19096;BME280;9680;52.520;13.332;2023-11-18T08:39:31;102221.88;;;6.09;84.78
19096;BME280;9680;52.520;13.332;2023-11-18T08:41:58;102223.63;;;6.18;84.94
19096;BME280;9680;52.520;13.332;2023-11-18T08:44:24;102214.19;;;6.33;84.68
19096;BME280;9680;52.520;13.332;2023-11-18T08:46:52;102209.91;;;6.39;84.15
19096;BME280;9680;52.520;13.332;2023-11-18T08:49:19;102215.09;;;6.43;83.69
19096;BME280;9680;52.520;13.332;2023-11-18T08:51:47;102213.38;;;6.45;83.30
19096;BME280;9680;52.520;13.332;2023-11-18T08:54:14;102227.19;;;6.45;83.04
19096;BME280;9680;52.520;13.332;2023-11-18T08:56:52;102231.50;;;6.46;82.93
19096;BME280;9680;52.520;13.332;2023-11-18T08:59:20;102236.69;;;6.48;83.08
19096;BME280;9680;52.520;13.332;2023-11-18T09:01:50;102231.50;;;6.49;82.95
19096;BME280;9680;52.520;13.332;2023-11-18T09:04:21;102235.81;;;6.43;82.39
19096;BME280;9680;52.520;13.332;2023-11-18T09:06:49;102241.84;;;6.35;82.18
19096;BME280;9680;52.520;13.332;2023-11-18T09:09:17;102240.88;;;6.16;81.74
19096;BME280;9680;52.520;13.332;2023-11-18T09:11:53;102252.06;;;6.14;82.49
19096;BME280;9680;52.520;13.332;2023-11-18T09:14:21;102249.50;;;6.12;82.51
19096;BME280;9680;52.520;13.332;2023-11-18T09:16:50;102255.56;;;6.22;82.65
19096;BME280;9680;52.520;13.332;2023-11-18T09:19:16;102259.91;;;6.29;82.53
19096;BME280;9680;52.520;13.332;2023-11-18T09:21:46;102260.81;;;6.34;81.98
19096;BME280;9680;52.520;13.332;2023-11-18T09:24:14;102255.66;;;6.37;81.93
19096;BME280;9680;52.520;13.332;2023-11-18T09:26:45;102257.38;;;6.40;81.62
19096;BME280;9680;52.520;13.332;2023-11-18T09:29:14;102262.53;;;6.37;81.42
19096;BME280;9680;52.520;13.332;2023-11-18T09:31:43;102257.34;;;6.34;81.23
19096;BME280;9680;52.520;13.332;2023-11-18T09:34:13;102253.88;;;6.32;81.08
19096;BME280;9680;52.520;13.332;2023-11-18T09:36:41;102244.38;;;6.31;81.20
19096;BME280;9680;52.520;13.332;2023-11-18T09:39:08;102242.69;;;6.39;81.37
19096;BME280;9680;52.520;13.332;2023-11-18T09:41:44;102239.28;;;6.45;81.00
19096;BME280;9680;52.520;13.332;2023-11-18T09:44:11;102240.16;;;6.53;80.69
19096;BME280;9680;52.520;13.332;2023-11-18T09:46:41;102244.47;;;6.54;80.65
19096;BME280;9680;52.520;13.332;2023-11-18T09:49:18;102246.19;;;6.53;79.90
19096;BME280;9680;52.520;13.332;2023-11-18T09:51:55;102250.50;;;6.53;80.03
19096;BME280;9680;52.520;13.332;2023-11-18T09:54:27;102253.97;;;6.58;80.13
19096;BME280;9680;52.520;13.332;2023-11-18T09:57:04;102260.91;;;6.65;80.15
19096;BME280;9680;52.520;13.332;2023-11-18T09:59:41;102260.03;;;6.63;79.94
19096;BME280;9680;52.520;13.332;2023-11-18T10:02:13;102258.34;;;6.73;79.80
19096;BME280;9680;52.520;13.332;2023-11-18T10:04:44;102260.06;;;6.76;79.87
19096;BME280;9680;52.520;13.332;2023-11-18T10:07:12;102260.06;;;6.82;79.80
19096;BME280;9680;52.520;13.332;2023-11-18T10:09:42;102264.41;;;6.92;79.75
19096;BME280;9680;52.520;13.332;2023-11-18T10:12:09;102255.81;;;6.99;79.33
19096;BME280;9680;52.520;13.332;2023-11-18T10:14:41;102254.03;;;6.92;78.78
19096;BME280;9680;52.520;13.332;2023-11-18T10:17:11;102247.16;;;6.93;78.99
19096;BME280;9680;52.520;13.332;2023-11-18T10:19:53;102253.19;;;6.98;78.89
19096;BME280;9680;52.520;13.332;2023-11-18T10:22:23;102244.56;;;6.97;78.75
19096;BME280;9680;52.520;13.332;2023-11-18T10:24:51;102246.31;;;7.05;79.01
19096;BME280;9680;52.520;13.332;2023-11-18T10:27:21;102245.44;;;7.06;78.60
19096;BME280;9680;52.520;13.332;2023-11-18T10:29:49;102250.63;;;7.09;79.05
19096;BME280;9680;52.520;13.332;2023-11-18T10:32:19;102245.44;;;7.17;78.96
19096;BME280;9680;52.520;13.332;2023-11-18T10:34:47;102242.00;;;7.25;78.97
19096;BME280;9680;52.520;13.332;2023-11-18T10:37:16;102238.53;;;7.33;79.15
19096;BME280;9680;52.520;13.332;2023-11-18T10:39:46;102241.97;;;7.41;78.66
19096;BME280;9680;52.520;13.332;2023-11-18T10:42:13;102242.84;;;7.46;78.72
19096;BME280;9680;52.520;13.332;2023-11-18T10:44:54;102238.53;;;7.47;78.91
19096;BME280;9680;52.520;13.332;2023-11-18T10:47:25;102245.44;;;7.49;78.32
19096;BME280;9680;52.520;13.332;2023-11-18T10:49:52;102238.50;;;7.48;77.75
19096;BME280;9680;52.520;13.332;2023-11-18T10:52:21;102252.34;;;7.52;77.99
19096;BME280;9680;52.520;13.332;2023-11-18T10:54:52;102255.78;;;7.52;77.65
19096;BME280;9680;52.520;13.332;2023-11-18T10:57:22;102258.38;;;7.55;77.53
19096;BME280;9680;52.520;13.332;2023-11-18T10:59:58;102261.84;;;7.61;77.40
19096;BME280;9680;52.520;13.332;2023-11-18T11:02:30;102251.47;;;7.59;77.07
19096;BME280;9680;52.520;13.332;2023-11-18T11:05:00;102250.59;;;7.58;76.74
19096;BME280;9680;52.520;13.332;2023-11-18T11:07:27;102254.06;;;7.56;76.71
19096;BME280;9680;52.520;13.332;2023-11-18T11:09:55;102254.09;;;7.43;76.09
19096;BME280;9680;52.520;13.332;2023-11-18T11:12:23;102257.53;;;7.35;76.61
19096;BME280;9680;52.520;13.332;2023-11-18T11:14:57;102261.88;;;7.31;76.75
19096;BME280;9680;52.520;13.332;2023-11-18T11:17:28;102267.94;;;7.30;76.72
19096;BME280;9680;52.520;13.332;2023-11-18T11:20:02;102265.31;;;7.28;76.90
19096;BME280;9680;52.520;13.332;2023-11-18T11:22:38;102255.81;;;7.27;76.72
19096;BME280;9680;52.520;13.332;2023-11-18T11:25:14;102259.25;;;7.28;76.82
19096;BME280;9680;52.520;13.332;2023-11-18T11:27:55;102252.34;;;7.35;77.08
19096;BME280;9680;52.520;13.332;2023-11-18T11:30:28;102248.91;;;7.37;77.07
19096;BME280;9680;52.520;13.332;2023-11-18T11:33:07;102242.00;;;7.49;76.95
19096;BME280;9680;52.520;13.332;2023-11-18T11:35:40;102231.59;;;7.63;76.66
19096;BME280;9680;52.520;13.332;2023-11-18T11:38:12;102229.84;;;7.77;76.74
19096;BME280;9680;52.520;13.332;2023-11-18T11:40:41;102228.94;;;7.95;76.21
19096;BME280;9680;52.520;13.332;2023-11-18T11:43:09;102235.81;;;8.04;75.72
19096;BME280;9680;52.520;13.332;2023-11-18T11:45:36;102234.91;;;8.16;75.58
19096;BME280;9680;52.520;13.332;2023-11-18T11:48:07;102233.13;;;8.24;74.86
19096;BME280;9680;52.520;13.332;2023-11-18T11:50:58;102222.75;;;8.27;74.21
19096;BME280;9680;52.520;13.332;2023-11-18T11:53:33;102223.56;;;8.36;74.16
19096;BME280;9680;52.520;13.332;2023-11-18T11:56:05;102214.03;;;8.42;73.45
19096;BME280;9680;52.520;13.332;2023-11-18T11:58:34;102210.59;;;8.34;72.90
19096;BME280;9680;52.520;13.332;2023-11-18T12:01:16;102203.72;;;8.25;73.06
19096;BME280;9680;52.520;13.332;2023-11-18T12:03:46;102206.31;;;8.22;73.17
19096;BME280;9680;52.520;13.332;2023-11-18T12:06:13;102203.72;;;8.18;73.09
19096;BME280;9680;52.520;13.332;2023-11-18T12:08:49;102197.69;;;8.15;72.88
19096;BME280;9680;52.520;13.332;2023-11-18T12:11:17;102200.28;;;8.12;73.10
19096;BME280;9680;52.520;13.332;2023-11-18T12:14:00;102202.91;;;8.09;72.90
19096;BME280;9680;52.520;13.332;2023-11-18T12:16:59;102189.06;;;8.12;72.69
19096;BME280;9680;52.520;13.332;2023-11-18T12:19:34;102176.94;;;8.14;72.53
19096;BME280;9680;52.520;13.332;2023-11-18T12:22:14;102180.38;;;8.14;72.23
19096;BME280;9680;52.520;13.332;2023-11-18T12:24:45;102166.53;;;8.17;72.24
19096;BME280;9680;52.520;13.332;2023-11-18T12:27:41;102178.63;;;8.20;72.08
19096;BME280;9680;52.520;13.332;2023-11-18T12:30:39;102173.41;;;8.23;72.31
19096;BME280;9680;52.520;13.332;2023-11-18T12:33:09;102176.03;;;8.24;71.92
19096;BME280;9680;52.520;13.332;2023-11-18T12:36:07;102158.69;;;8.29;71.94
19096;BME280;9680;52.520;13.332;2023-11-18T12:39:07;102158.66;;;8.34;71.46
19096;BME280;9680;52.520;13.332;2023-11-18T12:41:39;102167.25;;;8.41;71.31
19096;BME280;9680;52.520;13.332;2023-11-18T12:44:29;102168.97;;;8.47;70.85
19096;BME280;9680;52.520;13.332;2023-11-18T12:46:59;102166.34;;;8.54;70.87
19096;BME280;9680;52.520;13.332;2023-11-18T12:49:37;102171.50;;;8.60;70.27
19096;BME280;9680;52.520;13.332;2023-11-18T12:52:08;102171.50;;;8.60;69.82
19096;BME280;9680;52.520;13.332;2023-11-18T12:54:35;102165.50;;;8.54;69.63
19096;BME280;9680;52.520;13.332;2023-11-18T12:57:05;102164.63;;;8.47;69.64
19096;BME280;9680;52.520;13.332;2023-11-18T12:59:33;102164.63;;;8.47;69.65
19096;BME280;9680;52.520;13.332;2023-11-18T13:01:59;102165.50;;;8.48;69.61
19096;BME280;9680;52.520;13.332;2023-11-18T13:04:29;102169.84;;;8.50;68.89
19096;BME280;9680;52.520;13.332;2023-11-18T13:06:57;102161.16;;;8.54;68.85
19096;BME280;9680;52.520;13.332;2023-11-18T13:09:26;102151.66;;;8.50;67.52
19096;BME280;9680;52.520;13.332;2023-11-18T13:11:58;102148.28;;;8.34;67.73